Time;durP1;ratioP1;P1;durP2;ratioP2;P2;SDS_P1;SDS_P2;PMS_P1;PMS_P2;Temp;Humidity;BMP_temperature;BMP_pressure;BME280_temperature;BME280_humidity;BME280_pressure;Samples;Min_cycle;Max_cycle;Signal;HPM_P1;HPM_P2
2023/06/19 00:02:01;;;;;;;8.30;6.90;;;22.30;1.00;;;;;;5049984;28;20131;-64
2023/06/19 00:04:26;;;;;;;7.63;6.63;;;22.30;1.00;;;;;;5050380;28;20037;-64
2023/06/19 00:06:53;;;;;;;8.20;6.78;;;22.40;1.00;;;;;;5050678;28;20047;-65
2023/06/19 00:09:19;;;;;;;10.45;6.93;;;22.40;99.90;;;;;;5048867;28;20510;-63
2023/06/19 00:11:44;;;;;;;8.00;7.10;;;22.50;99.90;;;;;;5049563;28;20036;-64
2023/06/19 00:14:11;;;;;;;8.43;6.90;;;22.60;99.90;;;;;;5049562;28;20439;-64
2023/06/19 00:16:36;;;;;;;8.00;7.00;;;22.50;99.90;;;;;;5049957;28;20124;-64
2023/06/19 00:19:03;;;;;;;8.52;7.47;;;22.90;99.90;;;;;;5050088;28;20120;-64
2023/06/19 00:21:29;;;;;;;8.02;7.22;;;22.60;99.90;;;;;;5049947;28;20060;-64
2023/06/19 00:23:55;;;;;;;7.90;7.05;;;22.60;99.90;;;;;;5050103;28;20499;-65
2023/06/19 00:26:22;;;;;;;7.90;7.15;;;22.60;99.90;;;;;;5048719;28;20047;-65
2023/06/19 00:28:49;;;;;;;9.85;7.38;;;22.60;99.90;;;;;;5049988;28;20045;-65
2023/06/19 00:31:16;;;;;;;10.00;7.22;;;22.70;99.90;;;;;;5048301;28;20433;-64
2023/06/19 00:33:42;;;;;;;10.55;7.32;;;22.70;99.90;;;;;;5049540;28;20101;-64
2023/06/19 00:36:12;;;;;;;10.23;7.40;;;22.70;99.90;;;;;;5049101;28;20041;-65
2023/06/19 00:38:41;;;;;;;8.00;6.78;;;22.70;99.90;;;;;;5049670;28;20418;-64
2023/06/19 00:41:07;;;;;;;8.00;6.70;;;22.70;99.90;;;;;;5048664;28;20064;-65
2023/06/19 00:43:33;;;;;;;8.32;7.00;;;22.70;99.90;;;;;;5049693;28;20055;-64
2023/06/19 00:46:00;;;;;;;7.65;6.85;;;22.70;99.90;;;;;;5048023;28;20094;-64
2023/06/19 00:48:31;;;;;;;8.30;6.78;;;22.70;99.90;;;;;;5050986;28;20040;-64
2023/06/19 00:50:57;;;;;;;10.73;7.20;;;22.70;99.90;;;;;;5049312;28;20068;-65
2023/06/19 00:53:23;;;;;;;9.30;6.72;;;22.70;99.90;;;;;;5049563;28;20548;-64
2023/06/19 00:55:51;;;;;;;9.40;7.40;;;22.60;99.90;;;;;;5048117;28;20090;-65
2023/06/19 00:58:18;;;;;;;10.45;7.57;;;22.60;99.90;;;;;;5049180;28;20036;-64
2023/06/19 01:00:44;;;;;;;8.13;7.20;;;22.60;99.90;;;;;;5042918;28;20042;-64
2023/06/19 01:03:10;;;;;;;8.50;7.63;;;22.60;1.00;;;;;;5036925;28;20383;-64
2023/06/19 01:05:35;;;;;;;9.43;7.53;;;22.40;1.00;;;;;;5046260;28;20041;-64
2023/06/19 01:08:29;;;;;;;9.77;6.70;;;22.30;1.00;;;;;;5054769;28;20098;-64
2023/06/19 01:10:58;;;;;;;9.63;7.15;;;22.30;1.00;;;;;;5045161;28;20063;-65
2023/06/19 01:13:28;;;;;;;10.25;7.30;;;22.10;1.00;;;;;;5033734;28;20048;-64
2023/06/19 01:15:54;;;;;;;11.75;7.95;;;22.10;1.00;;;;;;5011916;28;20050;-65
2023/06/19 01:18:21;;;;;;;10.55;7.68;;;22.00;1.00;;;;;;5011179;28;20041;-65
2023/06/19 01:20:47;;;;;;;9.52;7.20;;;22.20;1.00;;;;;;5016237;28;20038;-65
2023/06/19 01:23:12;;;;;;;9.30;7.68;;;22.00;1.00;;;;;;5013738;28;20519;-65
2023/06/19 01:25:39;;;;;;;8.50;7.57;;;22.00;1.00;;;;;;5022543;28;20030;-64
2023/06/19 01:28:10;;;;;;;10.45;8.05;;;21.90;1.00;;;;;;5024405;28;20052;-64
2023/06/19 01:30:37;;;;;;;8.77;7.70;;;22.10;1.00;;;;;;5030300;28;20096;-64
2023/06/19 01:33:10;;;;;;;10.70;7.63;;;21.90;1.00;;;;;;5016971;28;20064;-64
2023/06/19 01:35:39;;;;;;;9.38;7.28;;;21.90;1.00;;;;;;5017393;28;20038;-63
2023/06/19 01:38:07;;;;;;;8.48;7.57;;;21.90;1.00;;;;;;5014738;28;20038;-63
2023/06/19 01:40:33;;;;;;;8.93;7.47;;;21.90;1.00;;;;;;5013150;28;20069;-64
2023/06/19 01:43:04;;;;;;;9.13;7.15;;;21.90;1.00;;;;;;5022466;28;20175;-64
2023/06/19 01:45:30;;;;;;;8.15;7.35;;;21.90;1.00;;;;;;5016767;28;20480;-65
2023/06/19 01:47:56;;;;;;;12.35;7.75;;;21.90;1.00;;;;;;5014466;28;20045;-64
2023/06/19 01:50:23;;;;;;;9.45;8.00;;;21.90;1.00;;;;;;5023179;28;20399;-65
2023/06/19 01:52:50;;;;;;;9.55;7.78;;;21.90;1.00;;;;;;5030289;28;20060;-64
2023/06/19 01:55:16;;;;;;;8.65;7.85;;;21.80;1.00;;;;;;5012211;28;20050;-63
2023/06/19 01:57:41;;;;;;;8.35;7.38;;;21.90;1.00;;;;;;5013048;28;20042;-64
2023/06/19 02:00:07;;;;;;;11.10;8.75;;;21.80;1.00;;;;;;5015588;28;20140;-64
2023/06/19 02:02:33;;;;;;;10.23;7.93;;;21.80;1.00;;;;;;5045475;28;20038;-65
2023/06/19 02:04:59;;;;;;;10.70;8.48;;;21.80;1.00;;;;;;5014099;28;20040;-64
2023/06/19 02:07:25;;;;;;;11.70;8.20;;;21.70;1.00;;;;;;5013753;28;20128;-64
2023/06/19 02:09:50;;;;;;;8.63;7.72;;;21.70;1.00;;;;;;5014218;28;20042;-64
2023/06/19 02:12:16;;;;;;;12.70;8.63;;;21.70;1.00;;;;;;5015142;28;20038;-64
2023/06/19 02:14:41;;;;;;;10.32;8.45;;;21.80;1.00;;;;;;5003678;28;20111;-64
2023/06/19 02:17:07;;;;;;;9.50;8.05;;;21.70;1.00;;;;;;5016904;28;20037;-65
2023/06/19 02:19:32;;;;;;;8.18;7.30;;;21.80;1.00;;;;;;5027698;28;20037;-64
2023/06/19 02:21:58;;;;;;;13.63;7.78;;;21.80;1.00;;;;;;5019312;28;20037;-64
2023/06/19 02:24:23;;;;;;;9.70;8.07;;;21.70;1.00;;;;;;5015127;28;20104;-64
2023/06/19 02:26:50;;;;;;;12.27;8.57;;;21.70;1.00;;;;;;5017833;28;20034;-64
2023/06/19 02:29:15;;;;;;;10.73;9.02;;;21.60;1.00;;;;;;5016439;28;20129;-64
2023/06/19 02:31:42;;;;;;;11.35;8.65;;;21.60;1.00;;;;;;5025567;28;20113;-63
2023/06/19 02:34:08;;;;;;;9.88;8.70;;;21.60;1.00;;;;;;5016347;28;20033;-64
2023/06/19 02:36:35;;;;;;;11.57;8.55;;;21.60;1.00;;;;;;5017789;28;20491;-65
2023/06/19 02:39:01;;;;;;;10.90;9.30;;;21.60;1.00;;;;;;5013364;28;20495;-63
2023/06/19 02:41:27;;;;;;;9.75;8.75;;;21.50;1.00;;;;;;5015012;28;20553;-64
2023/06/19 02:43:52;;;;;;;10.88;8.70;;;21.40;1.00;;;;;;5013506;28;20121;-64
2023/06/19 02:46:18;;;;;;;10.05;9.00;;;21.50;1.00;;;;;;5019879;28;20479;-64
2023/06/19 02:48:43;;;;;;;9.88;8.48;;;21.50;1.00;;;;;;5007131;28;20038;-63
2023/06/19 02:51:09;;;;;;;11.35;8.52;;;21.60;1.00;;;;;;5015279;28;20092;-64
2023/06/19 02:53:35;;;;;;;13.02;9.18;;;21.60;1.00;;;;;;5012731;28;20048;-64
2023/06/19 02:56:00;;;;;;;9.57;8.60;;;21.60;1.00;;;;;;5013435;28;20116;-64
2023/06/19 02:58:26;;;;;;;10.60;9.50;;;21.60;1.00;;;;;;5012067;28;20069;-64
2023/06/19 03:00:52;;;;;;;10.07;8.80;;;21.80;1.00;;;;;;5026685;28;20049;-63
2023/06/19 03:03:18;;;;;;;9.55;8.55;;;21.60;1.00;;;;;;5016469;28;20421;-64
2023/06/19 03:05:43;;;;;;;10.75;9.05;;;21.60;1.00;;;;;;5024869;28;20092;-64
2023/06/19 03:08:09;;;;;;;10.43;8.73;;;21.60;1.00;;;;;;5026945;28;20041;-64
2023/06/19 03:10:35;;;;;;;12.85;8.18;;;21.60;1.00;;;;;;5013519;28;20121;-64
2023/06/19 03:13:01;;;;;;;16.38;13.20;;;21.70;1.00;;;;;;5026242;28;20042;-63
2023/06/19 03:15:26;;;;;;;21.48;19.90;;;21.50;1.00;;;;;;5019751;28;20041;-63
2023/06/19 03:17:55;;;;;;;31.80;29.33;;;21.50;1.00;;;;;;5028950;28;20033;-64
2023/06/19 03:20:20;;;;;;;35.63;33.15;;;21.40;1.00;;;;;;5010562;28;20149;-63
2023/06/19 03:22:46;;;;;;;40.38;37.38;;;21.40;1.00;;;;;;5012712;28;20124;-64
2023/06/19 03:25:12;;;;;;;48.88;45.17;;;21.40;2.70;;;;;;5018879;28;20036;-64
2023/06/19 03:27:37;;;;;;;47.75;44.13;;;21.30;39.40;;;;;;5012904;28;20557;-64
2023/06/19 03:30:08;;;;;;;46.78;43.35;;;21.30;88.20;;;;;;5012232;28;20468;-64
2023/06/19 03:32:34;;;;;;;51.38;47.03;;;21.30;99.90;;;;;;5011775;28;20052;-64
2023/06/19 03:35:00;;;;;;;46.90;42.95;;;21.20;99.90;;;;;;5022136;28;20052;-64
2023/06/19 03:37:26;;;;;;;44.15;40.83;;;21.10;99.90;;;;;;5013677;28;20046;-63
2023/06/19 03:39:52;;;;;;;45.42;41.70;;;21.00;99.90;;;;;;5009869;28;20048;-64
2023/06/19 03:42:17;;;;;;;45.60;41.90;;;20.90;99.90;;;;;;5022433;28;20060;-64
2023/06/19 03:44:43;;;;;;;45.78;42.05;;;20.90;99.90;;;;;;5017970;28;20050;-63
2023/06/19 03:47:08;;;;;;;43.97;39.90;;;21.20;99.90;;;;;;5010796;28;20511;-64
2023/06/19 03:49:34;;;;;;;43.42;39.92;;;20.90;1.00;;;;;;5019606;28;20077;-63
2023/06/19 03:51:59;;;;;;;42.97;39.30;;;21.30;1.00;;;;;;5025849;28;20040;-63
2023/06/19 03:54:26;;;;;;;39.90;36.67;;;20.90;1.00;;;;;;5028547;28;20126;-63
2023/06/19 03:56:52;;;;;;;41.53;38.22;;;20.80;1.00;;;;;;5020874;28;20045;-63
2023/06/19 03:59:17;;;;;;;43.67;39.97;;;20.90;1.00;;;;;;5017526;28;20046;-64
2023/06/19 04:01:43;;;;;;;40.83;37.63;;;20.90;1.00;;;;;;5022912;28;20044;-63
2023/06/19 04:04:09;;;;;;;41.83;38.08;;;20.90;1.00;;;;;;5011796;28;20030;-63
2023/06/19 04:06:34;;;;;;;41.60;37.80;;;21.00;1.00;;;;;;5011743;28;20037;-64
2023/06/19 04:09:00;;;;;;;40.63;37.33;;;21.00;1.00;;;;;;5015119;28;20044;-64
2023/06/19 04:11:25;;;;;;;40.17;36.95;;;21.00;1.00;;;;;;5028060;28;20044;-63
2023/06/19 04:13:51;;;;;;;41.55;38.15;;;21.00;8.10;;;;;;5012890;28;20339;-64
2023/06/19 04:16:17;;;;;;;40.30;37.10;;;21.10;28.70;;;;;;5024940;28;20048;-63
2023/06/19 04:18:42;;;;;;;40.45;37.20;;;21.00;90.30;;;;;;5027058;28;20454;-64
2023/06/19 04:21:08;;;;;;;40.40;36.75;;;21.00;99.90;;;;;;5011907;28;20038;-63
2023/06/19 04:23:33;;;;;;;45.03;41.15;;;21.00;99.90;;;;;;5028696;28;20125;-63
2023/06/19 04:25:59;;;;;;;48.10;43.70;;;21.10;99.90;;;;;;5018603;28;20038;-63
2023/06/19 04:28:25;;;;;;;50.58;45.55;;;21.40;99.90;;;;;;5010789;28;20419;-63
2023/06/19 04:31:00;;;;;;;50.10;45.60;;;21.00;1.00;;;;;;5018198;28;20045;-63
2023/06/19 04:33:32;;;;;;;49.45;45.15;;;21.10;1.00;;;;;;5010573;28;20783;-64
2023/06/19 04:35:58;;;;;;;48.00;43.72;;;21.00;1.00;;;;;;5007587;28;20084;-63
2023/06/19 04:38:24;;;;;;;47.75;43.20;;;20.90;13.20;;;;;;5011393;28;20041;-63
2023/06/19 04:40:53;;;;;;;48.10;43.85;;;21.00;94.90;;;;;;5020655;28;20496;-63
2023/06/19 04:43:19;;;;;;;47.40;43.28;;;20.90;99.90;;;;;;5011633;28;20045;-63
2023/06/19 04:45:45;;;;;;;47.28;42.83;;;20.30;99.90;;;;;;5017744;28;20168;-63
2023/06/19 04:48:11;;;;;;;47.15;43.05;;;21.00;99.90;;;;;;5029920;28;20073;-63
2023/06/19 04:50:37;;;;;;;46.55;42.58;;;21.00;99.90;;;;;;5024065;28;20566;-64
2023/06/19 04:53:03;;;;;;;46.53;42.53;;;21.00;1.00;;;;;;5016794;28;20107;-63
2023/06/19 04:55:28;;;;;;;45.97;41.90;;;21.10;1.00;;;;;;5013280;28;20037;-64
2023/06/19 04:57:54;;;;;;;43.20;39.47;;;21.00;34.30;;;;;;5018573;28;20077;-63
2023/06/19 05:00:21;;;;;;;44.58;40.72;;;21.00;99.90;;;;;;5013496;28;20046;-63
2023/06/19 05:02:47;;;;;;;44.42;40.53;;;20.90;99.90;;;;;;5011319;28;20050;-63
2023/06/19 05:05:13;;;;;;;46.90;42.10;;;21.00;99.90;;;;;;5015025;28;20511;-63
2023/06/19 05:07:39;;;;;;;47.40;43.45;;;21.00;99.90;;;;;;5016835;28;20120;-63
2023/06/19 05:10:06;;;;;;;48.72;44.42;;;21.10;1.00;;;;;;5019718;28;20057;-63
2023/06/19 05:12:32;;;;;;;49.15;44.53;;;21.00;1.00;;;;;;5022530;28;20037;-63
2023/06/19 05:14:57;;;;;;;51.75;47.03;;;21.00;1.00;;;;;;5011821;28;20050;-63
2023/06/19 05:17:23;;;;;;;51.58;46.92;;;21.20;43.00;;;;;;5011048;28;20396;-63
2023/06/19 05:19:49;;;;;;;55.72;50.38;;;21.00;99.90;;;;;;5009731;28;20046;-64
2023/06/19 05:22:15;;;;;;;53.28;48.47;;;21.10;99.90;;;;;;5014770;28;20049;-63
2023/06/19 05:24:40;;;;;;;55.80;50.65;;;21.10;99.90;;;;;;5019559;28;20395;-63
2023/06/19 05:27:06;;;;;;;53.60;48.70;;;21.20;99.90;;;;;;5010515;28;20049;-63
2023/06/19 05:29:32;;;;;;;56.80;51.72;;;21.10;99.90;;;;;;5012314;28;20030;-62
2023/06/19 05:31:58;;;;;;;57.45;51.65;;;21.20;99.90;;;;;;5010046;28;20030;-63
2023/06/19 05:34:23;;;;;;;57.13;52.00;;;21.10;99.90;;;;;;5011038;28;20026;-63
2023/06/19 05:36:49;;;;;;;56.72;51.47;;;21.00;99.90;;;;;;5010048;28;20041;-64
2023/06/19 05:39:14;;;;;;;49.45;45.00;;;21.00;31.50;;;;;;5013912;28;20067;-64
2023/06/19 05:41:40;;;;;;;50.10;45.38;;;21.00;99.90;;;;;;5026021;28;20479;-63
2023/06/19 05:44:06;;;;;;;48.80;44.20;;;20.90;99.90;;;;;;5040184;28;20513;-63
2023/06/19 05:46:31;;;;;;;47.50;43.25;;;20.90;1.00;;;;;;5037612;28;20033;-63
2023/06/19 05:48:57;;;;;;;47.28;42.72;;;20.90;99.90;;;;;;5030511;28;20055;-63
2023/06/19 05:51:22;;;;;;;45.45;41.13;;;21.00;99.90;;;;;;5028890;28;20088;-63
2023/06/19 05:53:49;;;;;;;47.50;43.10;;;21.10;99.90;;;;;;5019415;28;20077;-63
2023/06/19 05:56:15;;;;;;;46.00;41.65;;;20.90;32.80;;;;;;5025427;28;20598;-63
2023/06/19 05:58:41;;;;;;;48.05;43.38;;;20.70;15.20;;;;;;5023558;28;20041;-63
2023/06/19 06:01:07;;;;;;;45.38;40.80;;;20.80;1.00;;;;;;5036335;28;20044;-63
2023/06/19 06:03:33;;;;;;;46.17;41.67;;;20.50;1.00;;;;;;5022753;28;20491;-63
2023/06/19 06:06:03;;;;;;;41.95;37.50;;;20.40;1.00;;;;;;5034709;28;20159;-63
2023/06/19 06:08:31;;;;;;;42.25;38.40;;;20.30;1.00;;;;;;5032612;28;20038;-63
2023/06/19 06:10:57;;;;;;;45.63;41.13;;;20.20;1.00;;;;;;5027851;28;20084;-63
2023/06/19 06:13:23;;;;;;;44.03;39.58;;;20.20;10.50;;;;;;5026325;28;20045;-63
2023/06/19 06:15:49;;;;;;;52.22;46.95;;;20.30;23.00;;;;;;5048517;28;20071;-63
2023/06/19 06:18:15;;;;;;;48.83;43.90;;;20.20;60.60;;;;;;5033373;28;20037;-63
2023/06/19 06:20:40;;;;;;;49.47;45.00;;;20.10;99.90;;;;;;5020568;28;20500;-64
2023/06/19 06:23:06;;;;;;;51.63;46.45;;;20.10;99.90;;;;;;5023340;28;20046;-63
2023/06/19 06:25:31;;;;;;;58.20;51.88;;;19.90;99.90;;;;;;5027138;28;20037;-63
2023/06/19 06:27:57;;;;;;;62.55;56.13;;;20.00;1.00;;;;;;5052152;28;20508;-63
2023/06/19 06:30:23;;;;;;;63.00;56.78;;;19.90;99.90;;;;;;5036978;28;20072;-64
2023/06/19 06:32:49;;;;;;;66.53;59.67;;;20.00;99.90;;;;;;5034758;28;20063;-64
2023/06/19 06:35:15;;;;;;;69.43;62.15;;;19.80;5.10;;;;;;5045106;28;20147;-63
2023/06/19 06:37:41;;;;;;;70.40;62.97;;;19.80;99.90;;;;;;5041531;28;20037;-64
2023/06/19 06:40:10;;;;;;;68.10;61.17;;;19.80;1.00;;;;;;5047678;28;20032;-64
2023/06/19 06:42:37;;;;;;;67.03;59.67;;;19.80;99.90;;;;;;5040148;28;20525;-64
2023/06/19 06:45:07;;;;;;;64.50;58.15;;;19.60;99.90;;;;;;5025132;28;20124;-64
2023/06/19 06:47:34;;;;;;;68.28;60.90;;;19.60;1.00;;;;;;5024346;28;20038;-64
2023/06/19 06:50:00;;;;;;;64.93;57.90;;;19.70;1.00;;;;;;5028547;28;20413;-63
2023/06/19 06:52:26;;;;;;;64.95;57.80;;;19.40;1.00;;;;;;5028349;28;20038;-64
2023/06/19 06:54:51;;;;;;;68.65;61.10;;;19.30;99.90;;;;;;5028032;28;20120;-63
2023/06/19 06:57:17;;;;;;;68.47;61.00;;;20.00;99.90;;;;;;5019982;28;20045;-64
2023/06/19 06:59:42;;;;;;;62.38;55.72;;;19.50;1.00;;;;;;5024056;28;20331;-64
2023/06/19 07:02:08;;;;;;;62.22;55.67;;;19.50;99.90;;;;;;5028739;28;20033;-64
2023/06/19 07:04:34;;;;;;;64.93;58.00;;;19.30;1.00;;;;;;5032306;28;20037;-65
2023/06/19 07:06:59;;;;;;;61.45;55.13;;;19.30;17.20;;;;;;5060166;28;20037;-65
2023/06/19 07:09:25;;;;;;;57.60;51.30;;;19.30;99.90;;;;;;5022871;28;20065;-65
2023/06/19 07:11:50;;;;;;;56.90;50.88;;;19.60;99.90;;;;;;5031209;28;20030;-64
2023/06/19 07:14:19;;;;;;;58.85;52.80;;;19.50;99.90;;;;;;5033492;28;20098;-65
2023/06/19 07:16:45;;;;;;;55.90;50.17;;;19.80;99.90;;;;;;5033247;28;20147;-65
2023/06/19 07:19:11;;;;;;;58.83;52.45;;;19.90;99.90;;;;;;5036806;28;20041;-65
2023/06/19 07:21:38;;;;;;;56.38;50.55;;;19.40;99.90;;;;;;5034267;28;20037;-64
2023/06/19 07:24:04;;;;;;;56.53;50.63;;;19.70;99.90;;;;;;5027138;28;20046;-64
2023/06/19 07:26:30;;;;;;;56.95;51.03;;;19.70;99.90;;;;;;5041845;28;20120;-65
2023/06/19 07:28:55;;;;;;;55.67;49.67;;;19.50;99.90;;;;;;5040981;28;20116;-65
2023/06/19 07:31:21;;;;;;;50.65;45.33;;;19.80;99.90;;;;;;5039202;28;20041;-66
2023/06/19 07:33:46;;;;;;;50.58;45.33;;;19.50;99.90;;;;;;5028847;28;20068;-65
2023/06/19 07:36:15;;;;;;;48.38;43.53;;;19.70;99.90;;;;;;5030945;28;20065;-66
2023/06/19 07:38:44;;;;;;;46.97;41.88;;;19.60;99.90;;;;;;5035048;28;20045;-65
2023/06/19 07:41:11;;;;;;;45.15;40.63;;;19.70;99.90;;;;;;5031002;28;20054;-65
2023/06/19 07:43:40;;;;;;;46.10;41.22;;;19.40;99.90;;;;;;5032264;28;20049;-65
2023/06/19 07:46:05;;;;;;;44.42;39.85;;;19.40;99.90;;;;;;5031474;28;20502;-65
2023/06/19 07:48:31;;;;;;;44.53;39.95;;;19.40;99.90;;;;;;5035094;28;20048;-65
2023/06/19 07:50:56;;;;;;;44.17;39.88;;;19.20;99.90;;;;;;5034239;28;20117;-64
2023/06/19 07:53:22;;;;;;;43.05;38.65;;;19.50;99.90;;;;;;5041651;28;20528;-65
2023/06/19 07:55:48;;;;;;;44.67;40.28;;;19.10;99.90;;;;;;5025518;28;20052;-64
2023/06/19 07:58:13;;;;;;;43.95;39.45;;;19.20;99.90;;;;;;5031825;28;20090;-64
2023/06/19 08:00:39;;;;;;;44.20;39.70;;;19.40;99.90;;;;;;5035227;28;20120;-64
2023/06/19 08:03:05;;;;;;;43.53;39.45;;;19.00;99.90;;;;;;5027966;28;20041;-64
2023/06/19 08:05:31;;;;;;;43.65;39.05;;;19.00;99.90;;;;;;5056353;28;20552;-65
2023/06/19 08:07:58;;;;;;;42.50;38.33;;;19.00;99.90;;;;;;5044036;28;20041;-65
2023/06/19 08:10:24;;;;;;;41.78;37.65;;;19.40;99.90;;;;;;5033101;28;20052;-66
2023/06/19 08:12:50;;;;;;;41.95;37.58;;;19.30;99.90;;;;;;5029244;28;20499;-64
2023/06/19 08:15:15;;;;;;;40.30;36.33;;;19.40;99.90;;;;;;5026891;28;20454;-64
2023/06/19 08:17:42;;;;;;;39.88;36.05;;;19.50;99.90;;;;;;5023150;28;20135;-64
2023/06/19 08:20:08;;;;;;;39.17;35.15;;;19.20;99.90;;;;;;5011653;28;20447;-65
2023/06/19 08:22:34;;;;;;;39.60;35.70;;;19.20;99.90;;;;;;5028015;28;20087;-65
2023/06/19 08:24:59;;;;;;;39.92;35.75;;;19.50;99.90;;;;;;5029904;28;20045;-65
2023/06/19 08:27:25;;;;;;;40.90;36.72;;;19.60;99.90;;;;;;5028160;28;20060;-65
2023/06/19 08:29:51;;;;;;;40.83;35.72;;;19.50;99.90;;;;;;5020211;28;20130;-65
2023/06/19 08:32:17;;;;;;;40.78;36.75;;;19.50;99.90;;;;;;5045468;28;20041;-65
2023/06/19 08:34:42;;;;;;;41.60;37.40;;;19.80;99.90;;;;;;5030674;28;20072;-65
2023/06/19 08:37:08;;;;;;;41.05;36.70;;;19.70;99.90;;;;;;5029329;28;20124;-65
2023/06/19 08:39:36;;;;;;;39.15;35.10;;;19.70;99.90;;;;;;5044584;28;20037;-65
2023/06/19 08:42:02;;;;;;;42.80;38.22;;;19.50;99.90;;;;;;5028487;28;20500;-65
2023/06/19 08:44:28;;;;;;;40.92;36.75;;;19.50;99.90;;;;;;5023914;28;20049;-65
2023/06/19 08:46:53;;;;;;;41.65;37.30;;;19.60;99.90;;;;;;5020761;28;20041;-65
2023/06/19 08:49:19;;;;;;;42.35;37.63;;;19.50;99.90;;;;;;5028843;28;20474;-65
2023/06/19 08:51:44;;;;;;;42.63;37.95;;;19.40;67.40;;;;;;5029863;28;20037;-66
2023/06/19 08:54:10;;;;;;;43.45;39.15;;;19.40;1.00;;;;;;5025828;28;20064;-65
2023/06/19 08:56:37;;;;;;;40.17;36.17;;;19.60;1.00;;;;;;5018453;28;20049;-64
2023/06/19 08:59:17;;;;;;;41.35;37.13;;;19.40;99.90;;;;;;5027131;28;20739;-65
2023/06/19 09:01:51;;;;;;;42.20;37.67;;;19.40;99.90;;;;;;5019388;28;20121;-65
2023/06/19 09:04:19;;;;;;;42.78;38.35;;;19.40;1.00;;;;;;5028976;28;20073;-65
2023/06/19 09:07:02;;;;;;;42.80;38.50;;;19.20;1.00;;;;;;5026752;28;20522;-65
2023/06/19 09:09:28;;;;;;;42.92;38.55;;;19.20;99.90;;;;;;5029349;28;20088;-64
2023/06/19 09:12:10;;;;;;;45.08;40.00;;;19.30;99.90;;;;;;5025174;28;20042;-64
2023/06/19 09:14:44;;;;;;;46.72;40.45;;;19.20;46.40;;;;;;5025860;28;20120;-65
2023/06/19 09:17:17;;;;;;;44.42;40.00;;;19.30;1.00;;;;;;5027024;28;20427;-65
2023/06/19 09:19:50;;;;;;;45.00;40.38;;;19.20;1.00;;;;;;5025860;28;20087;-65
2023/06/19 09:22:20;;;;;;;43.58;39.33;;;19.20;1.00;;;;;;5025838;28;20045;-65
2023/06/19 09:24:46;;;;;;;43.50;39.03;;;19.10;1.00;;;;;;5025752;28;20043;-66
2023/06/19 09:27:14;;;;;;;43.28;39.17;;;19.20;99.90;;;;;;5028558;28;20121;-66
2023/06/19 09:29:41;;;;;;;44.03;39.50;;;19.30;99.90;;;;;;5016786;28;20037;-65
2023/06/19 09:32:20;;;;;;;43.53;39.22;;;19.20;99.90;;;;;;5024005;28;20033;-65
2023/06/19 09:34:47;;;;;;;43.20;38.95;;;19.20;1.00;;;;;;5060089;28;20048;-66
2023/06/19 09:37:13;;;;;;;42.90;38.67;;;19.30;1.00;;;;;;5026162;28;20105;-66
2023/06/19 09:39:40;;;;;;;44.10;39.28;;;19.30;1.00;;;;;;5024721;28;20525;-65
2023/06/19 09:42:08;;;;;;;43.05;38.63;;;19.30;99.90;;;;;;5030677;28;20049;-65
2023/06/19 09:44:42;;;;;;;42.20;38.25;;;19.40;99.90;;;;;;5024070;28;20038;-66
2023/06/19 09:47:24;;;;;;;43.55;39.60;;;19.20;22.30;;;;;;5016995;28;20439;-66
2023/06/19 09:49:54;;;;;;;41.45;37.85;;;19.30;1.00;;;;;;5033100;28;20143;-66
2023/06/19 09:52:22;;;;;;;39.90;36.40;;;19.40;99.90;;;;;;5030804;28;20594;-65
2023/06/19 09:54:50;;;;;;;42.50;38.22;;;19.50;1.00;;;;;;5022733;28;20037;-65
2023/06/19 09:57:16;;;;;;;39.65;35.97;;;19.30;99.90;;;;;;5025674;28;20042;-65
2023/06/19 09:59:43;;;;;;;43.33;39.28;;;19.40;61.30;;;;;;5030403;28;20403;-66
2023/06/19 10:02:10;;;;;;;43.35;39.38;;;19.50;1.00;;;;;;5028553;28;20125;-66
2023/06/19 10:04:46;;;;;;;43.63;39.67;;;19.50;99.90;;;;;;5031567;28;20479;-66
2023/06/19 10:07:19;;;;;;;45.13;41.05;;;19.40;99.90;;;;;;5021694;28;20041;-66
2023/06/19 10:09:58;;;;;;;46.35;41.83;;;19.50;59.60;;;;;;5049730;28;20056;-65
2023/06/19 10:12:44;;;;;;;50.40;45.45;;;19.40;1.00;;;;;;5025638;28;20519;-66
2023/06/19 10:15:17;;;;;;;48.88;43.63;;;19.50;1.00;;;;;;5028212;28;20080;-66
2023/06/19 10:17:58;;;;;;;49.95;45.17;;;19.30;6.60;;;;;;5029035;28;20111;-66
2023/06/19 10:20:38;;;;;;;50.10;45.38;;;19.20;13.00;;;;;;5013456;28;20482;-66
2023/06/19 10:23:07;;;;;;;48.90;44.20;;;19.20;99.90;;;;;;5028254;28;20098;-66
2023/06/19 10:25:39;;;;;;;51.08;46.08;;;19.20;99.90;;;;;;5017795;28;20422;-66
2023/06/19 10:28:21;;;;;;;49.25;44.55;;;19.30;99.90;;;;;;5025130;28;20040;-67
2023/06/19 10:31:02;;;;;;;45.60;41.08;;;19.40;99.90;;;;;;5019467;28;20042;-66
2023/06/19 10:33:30;;;;;;;42.88;38.97;;;19.40;99.90;;;;;;5024435;28;20519;-66
2023/06/19 10:35:56;;;;;;;44.25;40.08;;;19.40;87.30;;;;;;5030348;28;20044;-66
2023/06/19 10:38:21;;;;;;;46.50;42.13;;;19.50;1.00;;;;;;5028729;28;20033;-66
2023/06/19 10:40:47;;;;;;;42.60;38.45;;;19.40;99.90;;;;;;5028987;28;20156;-66
2023/06/19 10:43:30;;;;;;;37.88;34.10;;;19.50;99.90;;;;;;5030214;28;20513;-66
2023/06/19 10:45:56;;;;;;;36.55;32.83;;;19.90;99.90;;;;;;5051070;28;20048;-66
2023/06/19 10:48:24;;;;;;;37.17;33.63;;;20.20;99.90;;;;;;5027624;28;20045;-67
2023/06/19 10:50:51;;;;;;;33.88;30.17;;;20.40;24.80;;;;;;5021974;28;20046;-65
2023/06/19 10:53:43;;;;;;;35.47;32.15;;;20.50;99.90;;;;;;5026262;28;20077;-67
2023/06/19 10:56:08;;;;;;;32.28;29.27;;;20.50;44.70;;;;;;5049965;28;20056;-66
2023/06/19 10:58:34;;;;;;;30.65;27.77;;;20.50;1.00;;;;;;5029176;28;20041;-65
2023/06/19 11:00:59;;;;;;;32.85;29.83;;;20.70;1.00;;;;;;5029536;28;20053;-65
2023/06/19 11:03:25;;;;;;;33.75;30.52;;;20.70;99.90;;;;;;5030658;28;20072;-67
2023/06/19 11:05:50;;;;;;;33.80;30.70;;;20.50;99.90;;;;;;5047230;28;20045;-65
2023/06/19 11:08:21;;;;;;;35.10;32.10;;;20.80;99.90;;;;;;5032853;28;20043;-64
2023/06/19 11:10:47;;;;;;;31.75;28.95;;;20.90;99.90;;;;;;5045911;28;20439;-65
2023/06/19 11:13:17;;;;;;;31.73;28.73;;;21.20;99.90;;;;;;5031182;28;20068;-65
2023/06/19 11:15:43;;;;;;;28.38;25.83;;;21.40;87.60;;;;;;5050301;28;20099;-65
2023/06/19 11:18:09;;;;;;;29.15;26.55;;;21.50;44.00;;;;;;5034324;28;20045;-65
2023/06/19 11:20:51;;;;;;;29.15;25.88;;;21.30;10.40;;;;;;5045793;28;20526;-65
2023/06/19 11:23:29;;;;;;;25.05;22.77;;;21.60;1.00;;;;;;5016260;28;20046;-67
2023/06/19 11:26:01;;;;;;;28.50;26.02;;;21.60;1.00;;;;;;5030318;28;20072;-64
2023/06/19 11:28:29;;;;;;;29.08;26.58;;;21.60;99.90;;;;;;5030440;28;20053;-65
2023/06/19 11:31:03;;;;;;;25.02;22.88;;;21.80;99.90;;;;;;5029813;28;20514;-64
2023/06/19 11:33:30;;;;;;;26.10;23.90;;;22.00;99.90;;;;;;5030244;28;20052;-66
2023/06/19 11:36:00;;;;;;;24.50;22.42;;;22.00;99.90;;;;;;5043450;28;20520;-67
2023/06/19 11:38:26;;;;;;;27.13;24.30;;;22.10;99.90;;;;;;5032924;28;20522;-66
2023/06/19 11:40:56;;;;;;;25.00;22.77;;;22.10;78.90;;;;;;5030128;28;20037;-66
2023/06/19 11:43:30;;;;;;;24.75;22.42;;;22.10;26.30;;;;;;5028923;28;20482;-67
2023/06/19 11:46:03;;;;;;;25.45;23.25;;;22.10;1.00;;;;;;5043201;28;20099;-66
2023/06/19 11:48:28;;;;;;;26.08;23.38;;;22.40;1.00;;;;;;5031316;28;20033;-66
2023/06/19 11:50:54;;;;;;;24.40;22.08;;;22.20;1.00;;;;;;5036981;28;20088;-66
2023/06/19 11:53:21;;;;;;;23.95;21.50;;;22.10;1.00;;;;;;5041453;28;20475;-67
2023/06/19 11:55:47;;;;;;;24.98;22.58;;;22.30;1.00;;;;;;5028120;28;20048;-67
2023/06/19 11:58:15;;;;;;;24.27;22.20;;;22.30;1.00;;;;;;5016857;28;20488;-67
2023/06/19 12:00:41;;;;;;;24.42;22.05;;;22.40;1.00;;;;;;5024993;28;20487;-67
2023/06/19 12:03:07;;;;;;;26.42;23.67;;;22.40;1.00;;;;;;5026732;28;20045;-67
2023/06/19 12:05:32;;;;;;;29.05;26.15;;;22.70;1.00;;;;;;5029373;28;20040;-67
2023/06/19 12:07:58;;;;;;;24.17;21.77;;;22.30;1.00;;;;;;5029950;28;20037;-67
2023/06/19 12:10:23;;;;;;;24.60;22.52;;;22.50;1.00;;;;;;5019064;28;20148;-67
2023/06/19 12:12:49;;;;;;;23.63;21.38;;;22.80;1.00;;;;;;5022182;28;20041;-66
2023/06/19 12:15:15;;;;;;;28.65;25.83;;;22.80;99.90;;;;;;5028995;28;20586;-67
2023/06/19 12:17:40;;;;;;;25.73;23.30;;;22.80;99.90;;;;;;5029499;28;20053;-67
2023/06/19 12:20:07;;;;;;;24.00;22.00;;;22.80;99.90;;;;;;5020366;28;20038;-67
2023/06/19 12:22:34;;;;;;;26.42;23.45;;;23.00;99.90;;;;;;5041139;28;20460;-68
2023/06/19 12:25:00;;;;;;;29.63;25.63;;;23.00;99.90;;;;;;5020172;28;20081;-67
2023/06/19 12:27:26;;;;;;;27.52;24.67;;;22.80;99.90;;;;;;5026666;28;20044;-68
2023/06/19 12:29:52;;;;;;;29.35;23.48;;;22.80;99.90;;;;;;5042861;28;20033;-67
2023/06/19 12:32:17;;;;;;;24.95;22.40;;;23.00;99.90;;;;;;5023937;28;20116;-68
2023/06/19 12:34:46;;;;;;;26.73;22.40;;;23.00;99.90;;;;;;5020659;28;20369;-68
2023/06/19 12:37:14;;;;;;;26.10;23.40;;;23.00;99.90;;;;;;5025826;28;20033;-68